createdAt,value
2019-04-06T00:02:29.547Z,12.40
2019-04-06T00:04:58.006Z,12.30
2019-04-06T00:07:26.555Z,12.30
2019-04-06T00:09:55.033Z,12.30
2019-04-06T00:12:23.514Z,12.40
2019-04-06T00:14:51.960Z,12.60
2019-04-06T00:17:20.410Z,12.70
2019-04-06T00:19:48.841Z,12.60
2019-04-06T00:22:17.310Z,12.40
2019-04-06T00:24:45.738Z,12.20
2019-04-06T00:27:14.173Z,12.00
2019-04-06T00:29:42.638Z,11.90
2019-04-06T00:32:12.724Z,11.80
2019-04-06T00:34:41.162Z,11.70
2019-04-06T00:37:09.620Z,11.80
2019-04-06T00:39:38.063Z,11.80
2019-04-06T00:42:06.520Z,11.50
2019-04-06T00:44:34.943Z,11.30
2019-04-06T00:47:03.423Z,11.30
2019-04-06T00:49:31.862Z,11.30
2019-04-06T00:52:00.311Z,11.40
2019-04-06T00:54:28.737Z,11.30
2019-04-06T00:56:57.217Z,11.00
2019-04-06T00:59:26.563Z,10.90
2019-04-06T01:01:55.043Z,10.70
2019-04-06T01:04:23.467Z,10.60
2019-04-06T01:06:51.969Z,10.40
2019-04-06T01:09:20.439Z,10.40
2019-04-06T01:11:48.895Z,10.30
2019-04-06T01:14:17.315Z,10.20
2019-04-06T01:16:45.785Z,10.10
2019-04-06T01:19:14.210Z,10.20
2019-04-06T01:21:42.662Z,10.40
2019-04-06T01:24:11.109Z,10.50
2019-04-06T01:26:39.573Z,10.50
2019-04-06T01:29:07.991Z,10.50
2019-04-06T01:31:36.481Z,10.30
2019-04-06T01:34:04.925Z,10.10
2019-04-06T01:36:33.444Z,10.10
2019-04-06T01:39:01.918Z,10.00
2019-04-06T01:41:30.365Z,9.80
2019-04-06T01:43:58.807Z,9.70
2019-04-06T01:46:27.242Z,9.60
2019-04-06T01:48:56.615Z,9.70
2019-04-06T01:51:25.067Z,9.60
2019-04-06T01:53:53.494Z,9.50
2019-04-06T01:56:21.934Z,9.50
2019-04-06T01:58:50.436Z,9.40
2019-04-06T02:01:20.495Z,9.40
2019-04-06T02:03:49.049Z,9.40
2019-04-06T02:06:17.563Z,9.20
2019-04-06T02:08:46.018Z,9.20
2019-04-06T02:11:14.462Z,9.20
2019-04-06T02:13:42.910Z,9.20
2019-04-06T02:16:11.358Z,9.10
2019-04-06T02:18:39.899Z,9.10
2019-04-06T02:21:08.403Z,9.00
2019-04-06T02:23:36.848Z,9.00
2019-04-06T02:26:05.272Z,9.00
2019-04-06T02:28:33.742Z,9.00
2019-04-06T02:31:03.851Z,9.00
2019-04-06T02:33:50.555Z,9.10
2019-04-06T02:36:20.688Z,9.10
2019-04-06T02:38:53.605Z,9.30
2019-04-06T02:41:23.684Z,9.40
2019-04-06T02:43:52.127Z,9.50
2019-04-06T02:46:20.556Z,9.60
2019-04-06T02:48:49.168Z,9.60
2019-04-06T02:51:17.733Z,9.50
2019-04-06T02:53:46.175Z,9.40
2019-04-06T02:56:14.789Z,9.40
2019-04-06T02:58:43.329Z,9.20
2019-04-06T03:01:11.852Z,9.20
2019-04-06T03:03:40.363Z,9.20
2019-04-06T03:06:08.802Z,9.30
2019-04-06T03:08:37.252Z,9.30
2019-04-06T03:11:05.690Z,9.30
2019-04-06T03:13:53.582Z,9.30
2019-04-06T03:16:22.084Z,9.30
2019-04-06T03:18:50.530Z,9.20
2019-04-06T03:21:18.971Z,9.10
2019-04-06T03:23:51.536Z,9.00
2019-04-06T03:26:17.739Z,9.00
2019-04-06T03:28:46.391Z,9.10
2019-04-06T03:31:14.830Z,9.00
2019-04-06T03:33:43.354Z,9.00
2019-04-06T03:36:11.777Z,8.90
2019-04-06T03:38:40.411Z,8.90
2019-04-06T03:41:08.960Z,8.90
2019-04-06T03:43:37.596Z,8.90
2019-04-06T03:46:06.130Z,8.90
2019-04-06T03:48:34.587Z,8.90
2019-04-06T03:51:03.230Z,8.90
2019-04-06T03:53:31.761Z,8.80
2019-04-06T03:56:00.262Z,8.80
2019-04-06T03:58:28.719Z,8.80
2019-04-06T04:00:57.155Z,8.80
2019-04-06T04:03:25.854Z,8.90
2019-04-06T04:05:54.445Z,9.00
2019-04-06T04:08:22.905Z,8.90
2019-04-06T04:10:52.623Z,8.80
2019-04-06T04:13:21.102Z,8.80
2019-04-06T04:15:49.600Z,8.90
2019-04-06T04:18:18.076Z,8.90
2019-04-06T04:20:46.548Z,9.00
2019-04-06T04:23:14.980Z,9.10
2019-04-06T04:25:43.444Z,9.10
2019-04-06T04:28:11.933Z,9.10
2019-04-06T04:30:40.399Z,9.10
2019-04-06T04:33:08.851Z,9.10
2019-04-06T04:35:37.291Z,9.20
2019-04-06T04:38:06.092Z,9.30
2019-04-06T04:40:34.635Z,9.30
2019-04-06T04:43:03.208Z,9.40
2019-04-06T04:45:31.788Z,9.40
2019-04-06T04:48:00.251Z,9.50
2019-04-06T04:50:28.745Z,9.50
2019-04-06T04:52:57.385Z,9.50
2019-04-06T04:55:26.135Z,9.50
2019-04-06T04:57:54.729Z,9.50
2019-04-06T05:00:23.235Z,9.60
2019-04-06T05:02:51.744Z,9.60
2019-04-06T05:05:20.184Z,9.60
2019-04-06T05:07:49.030Z,9.60
2019-04-06T05:10:17.523Z,9.60
2019-04-06T05:12:46.633Z,9.50
2019-04-06T05:15:23.631Z,9.50
2019-04-06T05:17:52.047Z,9.60
2019-04-06T05:20:20.558Z,10.00
2019-04-06T05:22:49.016Z,10.50
2019-04-06T05:25:17.525Z,10.80
2019-04-06T05:27:51.781Z,10.90
2019-04-06T05:30:16.906Z,11.00
2019-04-06T05:32:45.327Z,11.20
2019-04-06T05:35:13.764Z,11.20
2019-04-06T05:37:42.698Z,11.20
2019-04-06T05:40:11.211Z,11.10
2019-04-06T05:42:39.657Z,11.10
2019-04-06T05:45:09.048Z,10.90
2019-04-06T05:47:37.492Z,10.90
2019-04-06T05:50:07.478Z,11.10
2019-04-06T05:52:36.022Z,11.50
2019-04-06T05:55:08.934Z,11.70
2019-04-06T05:57:37.864Z,11.70
2019-04-06T06:00:10.117Z,11.70
2019-04-06T06:02:41.337Z,12.00
2019-04-06T06:05:10.503Z,12.20
2019-04-06T06:07:39.597Z,12.30
2019-04-06T06:10:10.914Z,12.40
2019-04-06T06:12:39.351Z,12.20
2019-04-06T06:15:07.916Z,12.00
2019-04-06T06:17:40.259Z,12.00
2019-04-06T06:20:09.339Z,12.00
2019-04-06T06:22:37.807Z,12.10
2019-04-06T06:25:08.753Z,12.50
2019-04-06T06:27:37.264Z,13.20
2019-04-06T06:30:10.489Z,13.50
2019-04-06T06:32:39.111Z,13.60
2019-04-06T06:35:07.708Z,14.00
2019-04-06T06:37:36.171Z,14.30
2019-04-06T06:40:09.979Z,14.90
2019-04-06T06:42:38.467Z,15.00
2019-04-06T06:45:07.149Z,14.50
2019-04-06T06:47:35.758Z,14.60
2019-04-06T06:50:07.784Z,14.60
2019-04-06T06:52:36.394Z,14.50
2019-04-06T06:55:06.424Z,13.80
2019-04-06T06:57:34.993Z,14.00
2019-04-06T07:00:05.069Z,14.00
2019-04-06T07:02:33.552Z,14.10
2019-04-06T07:05:02.102Z,14.20
2019-04-06T07:07:30.819Z,14.40
2019-04-06T07:10:05.048Z,14.20
2019-04-06T07:12:29.471Z,14.10
2019-04-06T07:14:57.908Z,13.90
2019-04-06T07:17:26.353Z,14.30
2019-04-06T07:19:54.889Z,14.00
2019-04-06T07:22:23.331Z,14.20
2019-04-06T07:24:51.799Z,15.00
2019-04-06T07:27:20.315Z,15.30
2019-04-06T07:29:48.755Z,15.80
2019-04-06T07:32:18.082Z,16.50
2019-04-06T07:34:46.503Z,16.70
2019-04-06T07:37:14.958Z,16.70
2019-04-06T07:39:43.488Z,17.00
2019-04-06T07:42:12.015Z,17.50
2019-04-06T07:44:40.453Z,17.90
2019-04-06T07:47:08.913Z,17.60
2019-04-06T07:49:37.355Z,18.00
2019-04-06T07:52:05.945Z,17.40
2019-04-06T07:54:34.393Z,18.00
2019-04-06T07:57:02.820Z,18.30
2019-04-06T07:59:31.346Z,18.10
2019-04-06T08:01:59.783Z,18.60
2019-04-06T08:04:28.250Z,19.00
2019-04-06T08:06:57.599Z,19.80
2019-04-06T08:09:26.044Z,20.10
2019-04-06T08:11:54.581Z,20.20
2019-04-06T08:14:23.053Z,19.30
2019-04-06T08:16:51.498Z,19.00
2019-04-06T08:19:20.026Z,19.70
2019-04-06T08:21:48.447Z,19.60
2019-04-06T08:24:16.948Z,19.60
2019-04-06T08:26:46.290Z,20.30
2019-04-06T08:29:15.120Z,20.60
2019-04-06T08:31:43.544Z,20.60
2019-04-06T08:34:13.744Z,19.90
2019-04-06T08:36:42.151Z,19.90
2019-04-06T08:39:10.651Z,19.50
2019-04-06T08:41:39.076Z,18.60
2019-04-06T08:44:07.595Z,19.80
2019-04-06T08:46:36.061Z,20.30
2019-04-06T08:49:04.711Z,20.80
2019-04-06T08:51:33.140Z,20.20
2019-04-06T08:54:01.586Z,21.10
2019-04-06T08:56:30.033Z,21.40
2019-04-06T08:58:58.459Z,21.70
2019-04-06T09:01:27.928Z,21.50
2019-04-06T09:03:56.351Z,21.40
2019-04-06T09:06:24.815Z,21.40
2019-04-06T09:08:53.254Z,20.90
2019-04-06T09:11:21.767Z,20.90
2019-04-06T09:13:50.261Z,21.40
2019-04-06T09:16:18.725Z,22.20
2019-04-06T09:18:49.150Z,22.10
2019-04-06T09:21:17.322Z,22.20
2019-04-06T09:23:45.886Z,22.20
2019-04-06T09:26:14.404Z,22.30
2019-04-06T09:28:43.334Z,22.90
2019-04-06T09:31:11.867Z,22.80
2019-04-06T09:33:40.320Z,22.20
2019-04-06T09:36:08.772Z,22.50
2019-04-06T09:38:37.218Z,22.50
2019-04-06T09:41:05.886Z,22.90
2019-04-06T09:43:34.454Z,22.70
2019-04-06T09:46:20.785Z,22.60
2019-04-06T09:49:07.520Z,21.90
2019-04-06T09:51:40.555Z,23.20
2019-04-06T09:54:13.449Z,23.40
2019-04-06T09:56:46.447Z,23.40
2019-04-06T09:59:37.117Z,22.90
2019-04-06T10:02:18.902Z,22.70
2019-04-06T10:04:48.968Z,22.60
2019-04-06T10:07:19.070Z,22.60
2019-04-06T10:09:49.341Z,23.20
2019-04-06T10:12:19.519Z,23.60
2019-04-06T10:14:58.384Z,23.80
2019-04-06T10:17:29.401Z,23.60
2019-04-06T10:20:14.586Z,23.80
2019-04-06T10:22:59.738Z,23.80
2019-04-06T10:25:38.904Z,24.40
2019-04-06T10:28:17.968Z,23.90
2019-04-06T10:30:48.048Z,23.50
2019-04-06T10:33:27.225Z,23.40
2019-04-06T10:36:09.159Z,23.60
2019-04-06T10:38:54.977Z,24.00
2019-04-06T10:41:25.049Z,24.30
2019-04-06T10:44:00.795Z,24.60
2019-04-06T10:46:36.323Z,24.80
2019-04-06T10:49:06.422Z,25.40
2019-04-06T10:51:36.646Z,25.40
2019-04-06T10:54:06.793Z,24.80
2019-04-06T10:56:36.915Z,25.20
2019-04-06T10:59:07.046Z,25.70
2019-04-06T11:01:43.070Z,26.10
2019-04-06T11:04:16.090Z,25.20
2019-04-06T11:06:46.191Z,26.00
2019-04-06T11:09:19.219Z,24.90
2019-04-06T11:12:01.334Z,25.20
2019-04-06T11:14:37.219Z,26.00
2019-04-06T11:17:10.118Z,25.80
2019-04-06T11:19:56.142Z,26.90
2019-04-06T11:22:26.281Z,27.00
2019-04-06T11:25:02.445Z,27.70
2019-04-06T11:27:35.500Z,28.00
2019-04-06T11:30:13.731Z,27.10
2019-04-06T11:32:39.128Z,27.00
2019-04-06T11:35:09.332Z,26.80
2019-04-06T11:37:55.509Z,27.50
2019-04-06T11:40:25.613Z,27.90
2019-04-06T11:43:07.606Z,28.00
2019-04-06T11:45:47.140Z,27.60
2019-04-06T11:48:33.799Z,27.60
2019-04-06T11:51:19.834Z,27.60
2019-04-06T11:53:55.767Z,26.60
2019-04-06T11:56:25.843Z,26.70
2019-04-06T11:59:07.752Z,26.70
2019-04-06T12:01:53.878Z,27.00
2019-04-06T12:04:29.646Z,27.30
2019-04-06T12:07:02.472Z,26.70
2019-04-06T12:09:38.532Z,25.90
2019-04-06T12:12:08.595Z,27.00
2019-04-06T12:14:41.606Z,26.80
2019-04-06T12:17:26.896Z,27.40
2019-04-06T12:20:13.061Z,27.50
2019-04-06T12:22:43.384Z,26.70
2019-04-06T12:25:29.693Z,27.30
2019-04-06T12:28:14.637Z,27.70
2019-04-06T12:30:50.670Z,27.50
2019-04-06T12:33:26.685Z,27.30
2019-04-06T12:36:08.630Z,27.10
2019-04-06T12:38:50.570Z,26.90
2019-04-06T12:41:38.459Z,27.20
2019-04-06T12:44:08.659Z,26.80
2019-04-06T12:46:41.519Z,26.90
2019-04-06T12:49:26.732Z,27.10
2019-04-06T12:52:14.887Z,26.90
2019-04-06T12:55:02.852Z,27.10
2019-04-06T12:57:42.105Z,27.30
2019-04-06T13:00:15.234Z,27.50
2019-04-06T13:03:03.446Z,27.60
2019-04-06T13:05:36.247Z,27.50
2019-04-06T13:08:18.246Z,27.20
2019-04-06T13:11:04.324Z,26.70
2019-04-06T13:13:34.403Z,26.80
2019-04-06T13:16:04.468Z,26.90
2019-04-06T13:18:34.553Z,27.10
2019-04-06T13:21:10.687Z,27.30
2019-04-06T13:23:40.777Z,27.60
2019-04-06T13:26:14.065Z,27.30
2019-04-06T13:28:56.162Z,27.10
2019-04-06T13:31:41.225Z,27.30
2019-04-06T13:34:27.486Z,27.10
2019-04-06T13:37:13.927Z,27.10
2019-04-06T13:39:46.952Z,26.70
2019-04-06T13:42:33.134Z,27.80
2019-04-06T13:45:09.112Z,27.70
2019-04-06T13:47:42.229Z,27.20
2019-04-06T13:50:12.578Z,27.10
2019-04-06T13:52:54.781Z,26.90
2019-04-06T13:55:30.918Z,26.20
2019-04-06T13:58:07.124Z,26.50
2019-04-06T14:00:49.096Z,26.50
2019-04-06T14:03:22.171Z,25.80
2019-04-06T14:05:54.995Z,25.40
2019-04-06T14:08:37.420Z,25.40
2019-04-06T14:11:19.782Z,25.90
2019-04-06T14:13:49.843Z,25.50
2019-04-06T14:16:22.851Z,25.30
2019-04-06T14:19:04.840Z,24.90
2019-04-06T14:21:49.768Z,24.70
2019-04-06T14:24:26.329Z,24.60
2019-04-06T14:26:59.632Z,24.30
2019-04-06T14:29:30.263Z,23.30
2019-04-06T14:32:03.903Z,23.00
2019-04-06T14:34:34.011Z,22.90
2019-04-06T14:37:19.429Z,22.90
2019-04-06T14:40:05.118Z,22.80
2019-04-06T14:42:41.387Z,22.60
2019-04-06T14:45:21.107Z,22.30
2019-04-06T14:48:10.288Z,22.30
2019-04-06T14:50:40.643Z,22.20
2019-04-06T14:53:19.242Z,22.40
2019-04-06T14:55:51.214Z,22.30
2019-04-06T14:58:39.129Z,22.10
2019-04-06T15:01:39.144Z,22.10
2019-04-06T15:04:00.069Z,22.10
2019-04-06T15:06:39.202Z,22.10
2019-04-06T15:09:17.570Z,21.90
2019-04-06T15:11:47.989Z,21.90
2019-04-06T15:14:23.940Z,21.90
2019-04-06T15:16:54.003Z,21.90
2019-04-06T15:19:24.111Z,22.00
2019-04-06T15:22:03.854Z,21.90
2019-04-06T15:24:34.480Z,21.90
2019-04-06T15:27:22.774Z,21.80
2019-04-06T15:29:58.021Z,21.70
2019-04-06T15:32:32.714Z,21.50
2019-04-06T15:35:06.112Z,21.50
2019-04-06T15:37:42.298Z,21.50
2019-04-06T15:40:28.220Z,21.40
2019-04-06T15:43:01.167Z,21.50
2019-04-06T15:45:46.918Z,21.40
2019-04-06T15:48:37.945Z,21.30
2019-04-06T15:51:20.643Z,21.30
2019-04-06T15:53:51.087Z,21.20
2019-04-06T15:56:28.523Z,21.30
2019-04-06T15:59:02.210Z,21.20
2019-04-06T16:01:38.469Z,21.20
2019-04-06T16:04:11.245Z,21.00
2019-04-06T16:06:50.861Z,21.00
2019-04-06T16:09:23.462Z,20.90
2019-04-06T16:12:10.747Z,20.90
2019-04-06T16:14:57.158Z,20.70
2019-04-06T16:17:36.079Z,20.60
2019-04-06T16:20:20.310Z,20.60
2019-04-06T16:26:26.453Z,20.50
2019-04-06T16:29:03.946Z,20.40
2019-04-06T16:31:37.513Z,20.30
2019-04-06T16:34:27.285Z,20.20
2019-04-06T16:37:12.809Z,20.10
2019-04-06T16:39:41.316Z,20.20
2019-04-06T16:42:15.417Z,20.10
2019-04-06T16:44:57.403Z,20.00
2019-04-06T16:47:36.237Z,19.90
2019-04-06T16:50:10.032Z,19.80
2019-04-06T16:52:49.236Z,19.80
2019-04-06T16:55:35.864Z,19.80
2019-04-06T16:58:08.765Z,19.70
2019-04-06T17:00:55.167Z,19.70
2019-04-06T17:03:34.156Z,19.70
2019-04-06T17:06:16.800Z,19.70
2019-04-06T17:09:03.572Z,19.70
2019-04-06T17:11:33.871Z,19.50
2019-04-06T17:14:22.589Z,19.40
2019-04-06T17:16:58.537Z,19.30
2019-04-06T17:19:43.710Z,19.40
2019-04-06T17:22:30.506Z,19.40
2019-04-06T17:25:06.391Z,19.30
2019-04-06T17:27:51.971Z,19.20
2019-04-06T17:30:22.153Z,19.10
2019-04-06T17:33:04.175Z,19.00
2019-04-06T17:35:50.520Z,19.00
2019-04-06T17:38:26.532Z,18.80
2019-04-06T17:41:14.942Z,18.70
2019-04-06T17:44:01.320Z,18.60
2019-04-06T17:46:33.969Z,18.50
2019-04-06T17:49:04.361Z,18.50
2019-04-06T17:51:34.629Z,18.40
2019-04-06T17:54:05.207Z,18.30
2019-04-06T17:56:47.998Z,18.30
2019-04-06T17:59:35.037Z,18.30
2019-04-06T18:02:11.293Z,18.10
2019-04-06T18:04:41.433Z,18.00
2019-04-06T18:07:26.695Z,18.00
2019-04-06T18:10:06.199Z,17.90
2019-04-06T18:12:45.350Z,17.80
2019-04-06T18:15:14.265Z,17.70
2019-04-06T18:17:42.869Z,17.50
2019-04-06T18:20:11.769Z,17.50
2019-04-06T18:22:40.215Z,17.40
2019-04-06T18:25:08.954Z,17.40
2019-04-06T18:27:37.397Z,17.30
2019-04-06T18:30:09.119Z,17.30
2019-04-06T18:32:39.530Z,17.30
2019-04-06T18:35:09.796Z,17.20
2019-04-06T18:37:40.160Z,17.10
2019-04-06T18:40:11.387Z,17.10
2019-04-06T18:42:39.994Z,17.10
2019-04-06T18:45:08.732Z,17.00
2019-04-06T18:47:37.262Z,16.80
2019-04-06T18:50:06.267Z,16.70
2019-04-06T18:52:35.024Z,16.60
2019-04-06T18:55:03.808Z,16.60
2019-04-06T18:57:32.267Z,16.60
2019-04-06T19:00:00.848Z,16.60
2019-04-06T19:02:29.360Z,16.50
2019-04-06T19:04:57.870Z,16.20
2019-04-06T19:07:26.338Z,16.10
2019-04-06T19:09:54.781Z,16.20
2019-04-06T19:12:23.594Z,16.10
2019-04-06T19:14:52.157Z,16.10
2019-04-06T19:17:20.636Z,16.00
2019-04-06T19:19:49.076Z,16.00
2019-04-06T19:22:17.537Z,15.90
2019-04-06T19:24:46.335Z,15.80
2019-04-06T19:27:14.818Z,15.70
2019-04-06T19:29:43.306Z,15.50
2019-04-06T19:32:11.760Z,15.40
2019-04-06T19:34:40.583Z,15.30
2019-04-06T19:37:10.378Z,15.20
2019-04-06T19:39:38.935Z,15.20
2019-04-06T19:42:07.391Z,15.10
2019-04-06T19:44:36.015Z,14.90
2019-04-06T19:47:04.584Z,14.90
2019-04-06T19:49:33.226Z,14.90
2019-04-06T19:52:01.866Z,14.80
2019-04-06T19:54:30.428Z,14.80
2019-04-06T19:56:59.299Z,14.70
2019-04-06T19:59:28.914Z,14.70
2019-04-06T20:01:57.526Z,14.60
2019-04-06T20:04:26.166Z,14.70
2019-04-06T20:06:54.666Z,14.60
2019-04-06T20:09:23.127Z,14.70
2019-04-06T20:12:03.570Z,14.70
2019-04-06T20:14:21.940Z,14.70
2019-04-06T20:20:18.681Z,15.20
2019-04-06T20:22:47.205Z,15.00
2019-04-06T20:25:15.959Z,14.70
2019-04-06T20:27:44.775Z,14.40
2019-04-06T20:30:13.795Z,14.30
2019-04-06T20:32:42.298Z,14.30
2019-04-06T20:35:11.106Z,14.30
2019-04-06T20:37:39.579Z,14.20
2019-04-06T20:40:09.626Z,14.30
2019-04-06T20:42:39.373Z,14.40
2019-04-06T20:45:08.322Z,14.30
2019-04-06T20:47:37.026Z,14.20
2019-04-06T20:50:09.252Z,14.10
2019-04-06T20:52:37.790Z,14.00
2019-04-06T20:55:07.925Z,13.90
2019-04-06T20:57:36.509Z,13.80
2019-04-06T21:00:08.471Z,13.70
2019-04-06T21:02:37.178Z,13.70
2019-04-06T21:05:07.852Z,13.60
2019-04-06T21:07:37.006Z,13.50
2019-04-06T21:10:08.874Z,13.50
2019-04-06T21:12:37.393Z,13.40
2019-04-06T21:15:17.846Z,13.30
2019-04-06T21:17:38.624Z,13.30
2019-04-06T21:20:07.706Z,13.40
2019-04-06T21:22:36.230Z,13.50
2019-04-06T21:25:05.937Z,13.70
2019-04-06T21:27:35.099Z,13.60
2019-04-06T21:30:08.316Z,13.60
2019-04-06T21:32:37.166Z,13.50
2019-04-06T21:35:06.944Z,13.50
2019-04-06T21:37:35.820Z,13.50
2019-04-06T21:40:05.458Z,13.50
2019-04-06T21:42:33.927Z,13.40
2019-04-06T21:45:02.808Z,13.40
2019-04-06T21:47:31.857Z,13.40
2019-04-06T21:50:00.870Z,13.50
2019-04-06T21:52:29.459Z,13.40
2019-04-06T21:54:57.901Z,13.40
2019-04-06T21:57:26.368Z,13.30
2019-04-06T21:59:55.137Z,13.30
2019-04-06T22:02:24.101Z,13.20
2019-04-06T22:04:53.308Z,13.20
2019-04-06T22:07:22.150Z,13.00
2019-04-06T22:09:50.679Z,12.80
2019-04-06T22:12:19.118Z,12.70
2019-04-06T22:14:47.584Z,12.70
2019-04-06T22:17:16.034Z,12.50
2019-04-06T22:19:44.466Z,12.40
2019-04-06T22:22:12.942Z,12.40
2019-04-06T22:24:41.829Z,12.40
2019-04-06T22:27:10.861Z,12.30
2019-04-06T22:29:39.771Z,12.20
2019-04-06T22:32:08.707Z,12.10
2019-04-06T22:34:40.310Z,12.00
2019-04-06T22:37:07.428Z,11.90
2019-04-06T22:39:36.450Z,12.00
2019-04-06T22:42:05.031Z,12.00
2019-04-06T22:44:33.510Z,11.90
2019-04-06T22:47:02.441Z,11.80
2019-04-06T22:49:30.913Z,11.80
2019-04-06T22:51:59.594Z,11.70
2019-04-06T22:54:28.067Z,11.60
2019-04-06T22:56:56.521Z,11.60
2019-04-06T22:59:25.584Z,11.40
2019-04-06T23:01:54.117Z,11.40
2019-04-06T23:04:24.451Z,11.40
2019-04-06T23:07:00.812Z,11.20
2019-04-06T23:09:30.361Z,11.10
2019-04-06T23:11:59.663Z,11.00
2019-04-06T23:14:28.420Z,10.90
2019-04-06T23:16:56.950Z,10.80
2019-04-06T23:19:25.931Z,10.70
2019-04-06T23:21:54.435Z,10.60
2019-04-06T23:24:22.876Z,10.60
2019-04-06T23:26:51.532Z,10.60
2019-04-06T23:29:20.069Z,10.60
2019-04-06T23:31:48.512Z,10.40
2019-04-06T23:34:16.955Z,10.30
2019-04-06T23:36:45.414Z,10.10
2019-04-06T23:39:13.861Z,10.10
2019-04-06T23:41:42.737Z,10.00
2019-04-06T23:44:11.220Z,10.00
2019-04-06T23:46:39.668Z,9.80
2019-04-06T23:49:08.764Z,9.80
2019-04-06T23:51:37.356Z,9.70
2019-04-06T23:54:05.794Z,9.70
2019-04-06T23:56:35.075Z,9.70
2019-04-06T23:59:03.586Z,9.70
